sensor_id;sensor_type;location;lat;lon;timestamp;P1;durP1;ratioP1;P2;durP2;ratioP2
4636;SDS011;2331;48.806;9.140;2024-03-08T00:00:17;28.73;;;18.35;;
4636;SDS011;2331;48.806;9.140;2024-03-08T00:02:44;30.17;;;18.85;;
4636;SDS011;2331;48.806;9.140;2024-03-08T00:05:12;30.00;;;18.65;;
4636;SDS011;2331;48.806;9.140;2024-03-08T00:07:40;29.70;;;17.80;;
4636;SDS011;2331;48.806;9.140;2024-03-08T00:10:08;28.23;;;17.27;;
4636;SDS011;2331;48.806;9.140;2024-03-08T00:12:37;29.15;;;17.30;;
4636;SDS011;2331;48.806;9.140;2024-03-08T00:15:07;29.65;;;18.33;;
4636;SDS011;2331;48.806;9.140;2024-03-08T00:17:34;27.77;;;17.75;;
4636;SDS011;2331;48.806;9.140;2024-03-08T00:20:01;30.60;;;18.92;;
4636;SDS011;2331;48.806;9.140;2024-03-08T00:22:33;30.77;;;18.50;;
4636;SDS011;2331;48.806;9.140;2024-03-08T00:25:00;26.73;;;16.80;;
4636;SDS011;2331;48.806;9.140;2024-03-08T00:27:27;28.92;;;18.10;;
4636;SDS011;2331;48.806;9.140;2024-03-08T00:29:57;31.58;;;18.30;;
4636;SDS011;2331;48.806;9.140;2024-03-08T00:32:24;32.17;;;17.90;;
4636;SDS011;2331;48.806;9.140;2024-03-08T00:34:52;29.05;;;17.95;;
4636;SDS011;2331;48.806;9.140;2024-03-08T00:37:19;30.75;;;18.45;;
4636;SDS011;2331;48.806;9.140;2024-03-08T00:39:47;33.35;;;19.23;;
4636;SDS011;2331;48.806;9.140;2024-03-08T00:42:14;30.00;;;18.38;;
4636;SDS011;2331;48.806;9.140;2024-03-08T00:44:41;29.83;;;18.45;;
4636;SDS011;2331;48.806;9.140;2024-03-08T00:47:09;26.63;;;16.85;;
4636;SDS011;2331;48.806;9.140;2024-03-08T00:49:36;28.02;;;17.58;;
4636;SDS011;2331;48.806;9.140;2024-03-08T00:52:03;26.65;;;17.38;;
4636;SDS011;2331;48.806;9.140;2024-03-08T00:54:31;27.55;;;17.15;;
4636;SDS011;2331;48.806;9.140;2024-03-08T00:56:58;31.38;;;18.17;;
4636;SDS011;2331;48.806;9.140;2024-03-08T00:59:27;29.67;;;17.60;;
4636;SDS011;2331;48.806;9.140;2024-03-08T01:01:55;28.15;;;17.73;;
4636;SDS011;2331;48.806;9.140;2024-03-08T01:04:23;31.55;;;18.23;;
4636;SDS011;2331;48.806;9.140;2024-03-08T01:06:51;26.02;;;16.48;;
4636;SDS011;2331;48.806;9.140;2024-03-08T01:09:17;28.85;;;17.48;;
4636;SDS011;2331;48.806;9.140;2024-03-08T01:11:46;28.40;;;17.15;;
4636;SDS011;2331;48.806;9.140;2024-03-08T01:14:14;26.73;;;17.15;;
4636;SDS011;2331;48.806;9.140;2024-03-08T01:16:41;31.20;;;18.05;;
4636;SDS011;2331;48.806;9.140;2024-03-08T01:19:08;25.33;;;16.27;;
4636;SDS011;2331;48.806;9.140;2024-03-08T01:21:36;28.33;;;18.60;;
4636;SDS011;2331;48.806;9.140;2024-03-08T01:24:03;26.17;;;16.27;;
4636;SDS011;2331;48.806;9.140;2024-03-08T01:26:30;27.50;;;17.48;;
4636;SDS011;2331;48.806;9.140;2024-03-08T01:28:56;27.45;;;16.40;;
4636;SDS011;2331;48.806;9.140;2024-03-08T01:31:24;28.50;;;18.02;;
4636;SDS011;2331;48.806;9.140;2024-03-08T01:33:50;31.08;;;18.15;;
4636;SDS011;2331;48.806;9.140;2024-03-08T01:36:18;27.08;;;17.10;;
4636;SDS011;2331;48.806;9.140;2024-03-08T01:38:46;28.40;;;17.50;;
4636;SDS011;2331;48.806;9.140;2024-03-08T01:41:13;26.10;;;16.60;;
4636;SDS011;2331;48.806;9.140;2024-03-08T01:43:41;28.75;;;17.88;;
4636;SDS011;2331;48.806;9.140;2024-03-08T01:46:08;29.40;;;18.08;;
4636;SDS011;2331;48.806;9.140;2024-03-08T01:48:37;26.52;;;16.25;;
4636;SDS011;2331;48.806;9.140;2024-03-08T01:51:06;28.23;;;17.88;;
4636;SDS011;2331;48.806;9.140;2024-03-08T01:53:33;29.50;;;18.20;;
4636;SDS011;2331;48.806;9.140;2024-03-08T01:56:01;26.10;;;16.23;;
4636;SDS011;2331;48.806;9.140;2024-03-08T01:58:29;26.48;;;16.85;;
4636;SDS011;2331;48.806;9.140;2024-03-08T02:00:58;27.30;;;17.52;;
4636;SDS011;2331;48.806;9.140;2024-03-08T02:03:25;27.98;;;18.00;;
4636;SDS011;2331;48.806;9.140;2024-03-08T02:05:52;25.23;;;16.80;;
4636;SDS011;2331;48.806;9.140;2024-03-08T02:08:19;27.10;;;16.90;;
4636;SDS011;2331;48.806;9.140;2024-03-08T02:10:47;29.15;;;17.98;;
4636;SDS011;2331;48.806;9.140;2024-03-08T02:13:15;28.08;;;16.55;;
4636;SDS011;2331;48.806;9.140;2024-03-08T02:15:52;30.63;;;17.88;;
4636;SDS011;2331;48.806;9.140;2024-03-08T02:18:19;25.98;;;17.05;;
4636;SDS011;2331;48.806;9.140;2024-03-08T02:20:47;27.73;;;17.15;;
4636;SDS011;2331;48.806;9.140;2024-03-08T02:23:15;28.88;;;17.67;;
4636;SDS011;2331;48.806;9.140;2024-03-08T02:25:42;29.13;;;17.80;;
4636;SDS011;2331;48.806;9.140;2024-03-08T02:28:09;27.45;;;16.50;;
4636;SDS011;2331;48.806;9.140;2024-03-08T02:30:37;30.48;;;17.42;;
4636;SDS011;2331;48.806;9.140;2024-03-08T02:33:04;29.65;;;17.38;;
4636;SDS011;2331;48.806;9.140;2024-03-08T02:35:30;32.22;;;18.00;;
4636;SDS011;2331;48.806;9.140;2024-03-08T02:37:59;29.02;;;17.38;;
4636;SDS011;2331;48.806;9.140;2024-03-08T02:40:25;26.50;;;16.55;;
4636;SDS011;2331;48.806;9.140;2024-03-08T02:42:52;28.80;;;17.85;;
4636;SDS011;2331;48.806;9.140;2024-03-08T02:45:19;28.60;;;18.00;;
4636;SDS011;2331;48.806;9.140;2024-03-08T02:47:46;27.63;;;17.98;;
4636;SDS011;2331;48.806;9.140;2024-03-08T02:50:14;29.05;;;17.55;;
4636;SDS011;2331;48.806;9.140;2024-03-08T02:52:41;30.10;;;17.80;;
4636;SDS011;2331;48.806;9.140;2024-03-08T02:55:10;27.40;;;17.42;;
4636;SDS011;2331;48.806;9.140;2024-03-08T02:57:40;28.05;;;17.48;;
4636;SDS011;2331;48.806;9.140;2024-03-08T03:00:07;25.67;;;15.48;;
4636;SDS011;2331;48.806;9.140;2024-03-08T03:02:35;25.38;;;16.20;;
4636;SDS011;2331;48.806;9.140;2024-03-08T03:05:02;30.27;;;18.55;;
4636;SDS011;2331;48.806;9.140;2024-03-08T03:07:31;26.33;;;16.65;;
4636;SDS011;2331;48.806;9.140;2024-03-08T03:09:58;28.25;;;17.23;;
4636;SDS011;2331;48.806;9.140;2024-03-08T03:12:26;28.15;;;17.42;;
4636;SDS011;2331;48.806;9.140;2024-03-08T03:14:53;29.45;;;17.85;;
4636;SDS011;2331;48.806;9.140;2024-03-08T03:17:21;31.48;;;17.92;;
4636;SDS011;2331;48.806;9.140;2024-03-08T03:19:48;26.83;;;16.50;;
4636;SDS011;2331;48.806;9.140;2024-03-08T03:22:15;28.48;;;17.65;;
4636;SDS011;2331;48.806;9.140;2024-03-08T03:24:42;27.95;;;17.15;;
4636;SDS011;2331;48.806;9.140;2024-03-08T03:27:09;29.05;;;16.45;;
4636;SDS011;2331;48.806;9.140;2024-03-08T03:29:38;26.45;;;16.90;;
4636;SDS011;2331;48.806;9.140;2024-03-08T03:32:05;27.67;;;16.92;;
4636;SDS011;2331;48.806;9.140;2024-03-08T03:34:32;26.60;;;16.70;;
4636;SDS011;2331;48.806;9.140;2024-03-08T03:37:01;29.30;;;17.63;;
4636;SDS011;2331;48.806;9.140;2024-03-08T03:39:28;26.10;;;16.55;;
4636;SDS011;2331;48.806;9.140;2024-03-08T03:41:56;27.58;;;16.00;;
4636;SDS011;2331;48.806;9.140;2024-03-08T03:44:23;24.92;;;16.02;;
4636;SDS011;2331;48.806;9.140;2024-03-08T03:46:51;26.60;;;16.13;;
4636;SDS011;2331;48.806;9.140;2024-03-08T03:49:18;26.88;;;16.55;;
4636;SDS011;2331;48.806;9.140;2024-03-08T03:51:45;28.02;;;16.30;;
4636;SDS011;2331;48.806;9.140;2024-03-08T03:54:12;27.05;;;15.70;;
4636;SDS011;2331;48.806;9.140;2024-03-08T03:56:39;27.48;;;15.32;;
4636;SDS011;2331;48.806;9.140;2024-03-08T03:59:06;26.15;;;16.65;;
4636;SDS011;2331;48.806;9.140;2024-03-08T04:01:32;26.50;;;15.73;;
4636;SDS011;2331;48.806;9.140;2024-03-08T04:04:01;28.77;;;16.60;;
4636;SDS011;2331;48.806;9.140;2024-03-08T04:06:28;25.33;;;15.65;;
4636;SDS011;2331;48.806;9.140;2024-03-08T04:08:55;28.20;;;16.05;;
4636;SDS011;2331;48.806;9.140;2024-03-08T04:11:21;31.00;;;17.15;;
4636;SDS011;2331;48.806;9.140;2024-03-08T04:13:48;24.48;;;15.40;;
4636;SDS011;2331;48.806;9.140;2024-03-08T04:16:15;28.83;;;17.00;;
4636;SDS011;2331;48.806;9.140;2024-03-08T04:18:41;23.15;;;14.88;;
4636;SDS011;2331;48.806;9.140;2024-03-08T04:21:10;25.02;;;15.05;;
4636;SDS011;2331;48.806;9.140;2024-03-08T04:23:36;28.35;;;16.80;;
4636;SDS011;2331;48.806;9.140;2024-03-08T04:26:03;23.95;;;15.00;;
4636;SDS011;2331;48.806;9.140;2024-03-08T04:28:31;25.90;;;16.38;;
4636;SDS011;2331;48.806;9.140;2024-03-08T04:30:58;27.33;;;16.48;;
4636;SDS011;2331;48.806;9.140;2024-03-08T04:33:25;26.35;;;16.55;;
4636;SDS011;2331;48.806;9.140;2024-03-08T04:35:53;25.50;;;16.10;;
4636;SDS011;2331;48.806;9.140;2024-03-08T04:38:21;28.25;;;16.02;;
4636;SDS011;2331;48.806;9.140;2024-03-08T04:40:48;25.05;;;15.32;;
4636;SDS011;2331;48.806;9.140;2024-03-08T04:43:15;26.30;;;16.77;;
4636;SDS011;2331;48.806;9.140;2024-03-08T04:45:43;25.60;;;16.33;;
4636;SDS011;2331;48.806;9.140;2024-03-08T04:48:10;27.17;;;16.25;;
4636;SDS011;2331;48.806;9.140;2024-03-08T04:50:37;29.85;;;16.15;;
4636;SDS011;2331;48.806;9.140;2024-03-08T04:53:04;27.15;;;16.85;;
4636;SDS011;2331;48.806;9.140;2024-03-08T04:55:34;28.17;;;18.42;;
4636;SDS011;2331;48.806;9.140;2024-03-08T04:58:02;27.50;;;16.60;;
4636;SDS011;2331;48.806;9.140;2024-03-08T05:00:30;29.63;;;18.05;;
4636;SDS011;2331;48.806;9.140;2024-03-08T05:02:57;27.65;;;16.40;;
4636;SDS011;2331;48.806;9.140;2024-03-08T05:05:24;27.67;;;16.98;;
4636;SDS011;2331;48.806;9.140;2024-03-08T05:07:53;26.50;;;16.27;;
4636;SDS011;2331;48.806;9.140;2024-03-08T05:10:20;28.38;;;17.23;;
4636;SDS011;2331;48.806;9.140;2024-03-08T05:12:48;25.60;;;16.42;;
4636;SDS011;2331;48.806;9.140;2024-03-08T05:15:14;28.25;;;17.33;;
4636;SDS011;2331;48.806;9.140;2024-03-08T05:17:42;31.15;;;16.30;;
4636;SDS011;2331;48.806;9.140;2024-03-08T05:20:10;28.05;;;17.58;;
4636;SDS011;2331;48.806;9.140;2024-03-08T05:22:38;30.58;;;17.75;;
4636;SDS011;2331;48.806;9.140;2024-03-08T05:25:05;28.15;;;17.05;;
4636;SDS011;2331;48.806;9.140;2024-03-08T05:27:33;30.90;;;18.45;;
4636;SDS011;2331;48.806;9.140;2024-03-08T05:30:02;28.05;;;17.48;;
4636;SDS011;2331;48.806;9.140;2024-03-08T05:32:30;26.58;;;17.85;;
4636;SDS011;2331;48.806;9.140;2024-03-08T05:34:57;32.53;;;17.35;;
4636;SDS011;2331;48.806;9.140;2024-03-08T05:37:24;29.50;;;18.67;;
4636;SDS011;2331;48.806;9.140;2024-03-08T05:39:51;29.95;;;19.20;;
4636;SDS011;2331;48.806;9.140;2024-03-08T05:42:18;31.17;;;18.70;;
4636;SDS011;2331;48.806;9.140;2024-03-08T05:44:46;28.40;;;17.80;;
4636;SDS011;2331;48.806;9.140;2024-03-08T05:47:16;26.77;;;16.75;;
4636;SDS011;2331;48.806;9.140;2024-03-08T05:49:43;27.75;;;18.05;;
4636;SDS011;2331;48.806;9.140;2024-03-08T05:52:10;29.83;;;18.33;;
4636;SDS011;2331;48.806;9.140;2024-03-08T05:54:37;29.85;;;18.63;;
4636;SDS011;2331;48.806;9.140;2024-03-08T05:57:06;26.35;;;17.27;;
4636;SDS011;2331;48.806;9.140;2024-03-08T05:59:32;29.70;;;18.80;;
4636;SDS011;2331;48.806;9.140;2024-03-08T06:01:59;32.10;;;18.58;;
4636;SDS011;2331;48.806;9.140;2024-03-08T06:04:27;26.10;;;16.92;;
4636;SDS011;2331;48.806;9.140;2024-03-08T06:06:54;30.02;;;18.23;;
4636;SDS011;2331;48.806;9.140;2024-03-08T06:09:22;28.95;;;18.77;;
4636;SDS011;2331;48.806;9.140;2024-03-08T06:11:49;30.60;;;18.55;;
4636;SDS011;2331;48.806;9.140;2024-03-08T06:14:16;29.38;;;18.65;;
4636;SDS011;2331;48.806;9.140;2024-03-08T06:16:44;33.50;;;18.63;;
4636;SDS011;2331;48.806;9.140;2024-03-08T06:19:10;27.98;;;18.30;;
4636;SDS011;2331;48.806;9.140;2024-03-08T06:21:39;31.00;;;19.42;;
4636;SDS011;2331;48.806;9.140;2024-03-08T06:24:06;29.15;;;18.35;;
4636;SDS011;2331;48.806;9.140;2024-03-08T06:26:33;32.72;;;18.70;;
4636;SDS011;2331;48.806;9.140;2024-03-08T06:29:00;30.42;;;18.70;;
4636;SDS011;2331;48.806;9.140;2024-03-08T06:31:27;28.55;;;18.27;;
4636;SDS011;2331;48.806;9.140;2024-03-08T06:33:53;35.72;;;18.50;;
4636;SDS011;2331;48.806;9.140;2024-03-08T06:36:20;29.88;;;18.55;;
4636;SDS011;2331;48.806;9.140;2024-03-08T06:38:49;29.75;;;19.15;;
4636;SDS011;2331;48.806;9.140;2024-03-08T06:41:16;31.83;;;19.42;;
4636;SDS011;2331;48.806;9.140;2024-03-08T06:43:42;27.23;;;17.60;;
4636;SDS011;2331;48.806;9.140;2024-03-08T06:46:10;31.70;;;18.40;;
4636;SDS011;2331;48.806;9.140;2024-03-08T06:48:37;34.92;;;20.13;;
4636;SDS011;2331;48.806;9.140;2024-03-08T06:51:04;28.38;;;17.60;;
4636;SDS011;2331;48.806;9.140;2024-03-08T06:53:31;33.30;;;18.83;;
4636;SDS011;2331;48.806;9.140;2024-03-08T06:56:01;29.23;;;18.63;;
4636;SDS011;2331;48.806;9.140;2024-03-08T06:58:28;31.67;;;20.38;;
4636;SDS011;2331;48.806;9.140;2024-03-08T07:00:54;31.30;;;19.30;;
4636;SDS011;2331;48.806;9.140;2024-03-08T07:03:23;32.63;;;19.98;;
4636;SDS011;2331;48.806;9.140;2024-03-08T07:05:51;32.30;;;19.35;;
4636;SDS011;2331;48.806;9.140;2024-03-08T07:08:18;38.75;;;21.05;;
4636;SDS011;2331;48.806;9.140;2024-03-08T07:10:47;28.23;;;18.30;;
4636;SDS011;2331;48.806;9.140;2024-03-08T07:13:15;33.55;;;19.05;;
4636;SDS011;2331;48.806;9.140;2024-03-08T07:15:43;32.65;;;20.27;;
4636;SDS011;2331;48.806;9.140;2024-03-08T07:18:09;34.90;;;18.52;;
4636;SDS011;2331;48.806;9.140;2024-03-08T07:20:39;31.23;;;19.70;;
4636;SDS011;2331;48.806;9.140;2024-03-08T07:23:06;34.88;;;20.60;;
4636;SDS011;2331;48.806;9.140;2024-03-08T07:25:33;33.65;;;20.25;;
4636;SDS011;2331;48.806;9.140;2024-03-08T07:28:00;32.40;;;20.35;;
4636;SDS011;2331;48.806;9.140;2024-03-08T07:30:28;30.27;;;17.67;;
4636;SDS011;2331;48.806;9.140;2024-03-08T07:33:13;31.25;;;19.52;;
4636;SDS011;2331;48.806;9.140;2024-03-08T07:35:40;33.53;;;20.65;;
4636;SDS011;2331;48.806;9.140;2024-03-08T07:38:07;33.42;;;20.40;;
4636;SDS011;2331;48.806;9.140;2024-03-08T07:40:35;28.52;;;18.63;;
4636;SDS011;2331;48.806;9.140;2024-03-08T07:43:04;29.15;;;18.40;;
4636;SDS011;2331;48.806;9.140;2024-03-08T07:45:32;31.58;;;19.13;;
4636;SDS011;2331;48.806;9.140;2024-03-08T07:47:59;27.58;;;18.25;;
4636;SDS011;2331;48.806;9.140;2024-03-08T07:50:27;28.80;;;18.10;;
4636;SDS011;2331;48.806;9.140;2024-03-08T07:52:53;32.60;;;20.00;;
4636;SDS011;2331;48.806;9.140;2024-03-08T07:55:20;31.65;;;18.52;;
4636;SDS011;2331;48.806;9.140;2024-03-08T07:57:49;30.10;;;18.33;;
4636;SDS011;2331;48.806;9.140;2024-03-08T08:00:16;30.45;;;18.63;;
4636;SDS011;2331;48.806;9.140;2024-03-08T08:02:45;27.98;;;17.58;;
4636;SDS011;2331;48.806;9.140;2024-03-08T08:05:14;31.65;;;18.63;;
4636;SDS011;2331;48.806;9.140;2024-03-08T08:07:44;30.52;;;17.73;;
4636;SDS011;2331;48.806;9.140;2024-03-08T08:10:11;31.88;;;19.30;;
4636;SDS011;2331;48.806;9.140;2024-03-08T08:12:43;28.95;;;18.33;;
4636;SDS011;2331;48.806;9.140;2024-03-08T08:15:10;31.67;;;18.05;;
4636;SDS011;2331;48.806;9.140;2024-03-08T08:17:37;30.40;;;19.08;;
4636;SDS011;2331;48.806;9.140;2024-03-08T08:20:06;31.98;;;18.45;;
4636;SDS011;2331;48.806;9.140;2024-03-08T08:22:34;32.47;;;19.15;;
4636;SDS011;2331;48.806;9.140;2024-03-08T08:25:00;29.75;;;17.90;;
4636;SDS011;2331;48.806;9.140;2024-03-08T08:27:28;33.22;;;18.90;;
4636;SDS011;2331;48.806;9.140;2024-03-08T08:29:55;30.95;;;18.08;;
4636;SDS011;2331;48.806;9.140;2024-03-08T08:32:22;30.23;;;18.30;;
4636;SDS011;2331;48.806;9.140;2024-03-08T08:34:48;32.92;;;19.15;;
4636;SDS011;2331;48.806;9.140;2024-03-08T08:37:16;33.50;;;19.55;;
4636;SDS011;2331;48.806;9.140;2024-03-08T08:39:43;31.02;;;18.23;;
4636;SDS011;2331;48.806;9.140;2024-03-08T08:42:10;29.25;;;18.77;;
4636;SDS011;2331;48.806;9.140;2024-03-08T08:44:37;28.13;;;17.85;;
4636;SDS011;2331;48.806;9.140;2024-03-08T08:47:04;32.10;;;19.00;;
4636;SDS011;2331;48.806;9.140;2024-03-08T08:49:31;31.23;;;18.67;;
4636;SDS011;2331;48.806;9.140;2024-03-08T08:51:58;31.65;;;17.90;;
4636;SDS011;2331;48.806;9.140;2024-03-08T08:54:27;28.13;;;17.92;;
4636;SDS011;2331;48.806;9.140;2024-03-08T08:56:54;29.20;;;17.73;;
4636;SDS011;2331;48.806;9.140;2024-03-08T08:59:21;29.30;;;18.10;;
4636;SDS011;2331;48.806;9.140;2024-03-08T09:01:50;28.67;;;17.52;;
4636;SDS011;2331;48.806;9.140;2024-03-08T09:04:18;30.85;;;18.17;;
4636;SDS011;2331;48.806;9.140;2024-03-08T09:06:46;30.08;;;18.17;;
4636;SDS011;2331;48.806;9.140;2024-03-08T09:09:13;29.45;;;17.45;;
4636;SDS011;2331;48.806;9.140;2024-03-08T09:11:43;27.90;;;17.42;;
4636;SDS011;2331;48.806;9.140;2024-03-08T09:14:11;28.58;;;17.83;;
4636;SDS011;2331;48.806;9.140;2024-03-08T09:16:38;32.33;;;19.10;;
4636;SDS011;2331;48.806;9.140;2024-03-08T09:19:04;26.90;;;16.75;;
4636;SDS011;2331;48.806;9.140;2024-03-08T09:21:32;29.23;;;18.20;;
4636;SDS011;2331;48.806;9.140;2024-03-08T09:23:59;31.13;;;19.85;;
4636;SDS011;2331;48.806;9.140;2024-03-08T09:26:26;29.13;;;18.38;;
4636;SDS011;2331;48.806;9.140;2024-03-08T09:28:55;27.85;;;16.90;;
4636;SDS011;2331;48.806;9.140;2024-03-08T09:31:21;29.50;;;18.50;;
4636;SDS011;2331;48.806;9.140;2024-03-08T09:33:48;26.25;;;17.17;;
4636;SDS011;2331;48.806;9.140;2024-03-08T09:36:15;28.42;;;18.27;;
4636;SDS011;2331;48.806;9.140;2024-03-08T09:38:42;27.42;;;18.63;;
4636;SDS011;2331;48.806;9.140;2024-03-08T09:41:09;28.33;;;17.75;;
4636;SDS011;2331;48.806;9.140;2024-03-08T09:43:37;29.08;;;17.40;;
4636;SDS011;2331;48.806;9.140;2024-03-08T09:46:06;28.15;;;17.85;;
4636;SDS011;2331;48.806;9.140;2024-03-08T09:48:34;33.67;;;17.75;;
4636;SDS011;2331;48.806;9.140;2024-03-08T09:51:01;27.85;;;17.38;;
4636;SDS011;2331;48.806;9.140;2024-03-08T09:53:29;26.75;;;18.08;;
4636;SDS011;2331;48.806;9.140;2024-03-08T09:55:56;26.52;;;17.60;;
4636;SDS011;2331;48.806;9.140;2024-03-08T09:58:24;27.92;;;17.85;;
4636;SDS011;2331;48.806;9.140;2024-03-08T10:01:12;30.23;;;18.50;;
4636;SDS011;2331;48.806;9.140;2024-03-08T10:03:38;26.50;;;16.88;;
4636;SDS011;2331;48.806;9.140;2024-03-08T10:06:06;24.42;;;16.15;;
4636;SDS011;2331;48.806;9.140;2024-03-08T10:08:35;28.05;;;16.60;;
4636;SDS011;2331;48.806;9.140;2024-03-08T10:11:01;28.83;;;17.52;;
4636;SDS011;2331;48.806;9.140;2024-03-08T10:13:28;30.95;;;17.35;;
4636;SDS011;2331;48.806;9.140;2024-03-08T10:15:56;32.70;;;18.02;;
4636;SDS011;2331;48.806;9.140;2024-03-08T10:18:24;30.27;;;17.42;;
4636;SDS011;2331;48.806;9.140;2024-03-08T10:21:02;28.23;;;16.55;;
4636;SDS011;2331;48.806;9.140;2024-03-08T10:23:33;29.30;;;16.73;;
4636;SDS011;2331;48.806;9.140;2024-03-08T10:26:10;27.73;;;17.70;;
4636;SDS011;2331;48.806;9.140;2024-03-08T10:28:39;27.00;;;16.70;;
4636;SDS011;2331;48.806;9.140;2024-03-08T10:31:06;28.92;;;18.08;;
4636;SDS011;2331;48.806;9.140;2024-03-08T10:33:35;27.73;;;17.50;;
4636;SDS011;2331;48.806;9.140;2024-03-08T10:36:05;31.27;;;18.05;;
4636;SDS011;2331;48.806;9.140;2024-03-08T10:38:33;26.58;;;16.83;;
4636;SDS011;2331;48.806;9.140;2024-03-08T10:41:02;23.10;;;15.30;;
4636;SDS011;2331;48.806;9.140;2024-03-08T10:43:31;27.95;;;16.75;;
4636;SDS011;2331;48.806;9.140;2024-03-08T10:46:06;28.25;;;15.93;;
4636;SDS011;2331;48.806;9.140;2024-03-08T10:48:44;24.88;;;16.05;;
4636;SDS011;2331;48.806;9.140;2024-03-08T10:51:14;27.02;;;16.70;;
4636;SDS011;2331;48.806;9.140;2024-03-08T10:53:42;22.60;;;15.00;;
4636;SDS011;2331;48.806;9.140;2024-03-08T10:56:10;24.92;;;14.95;;
4636;SDS011;2331;48.806;9.140;2024-03-08T10:58:39;26.15;;;16.17;;
4636;SDS011;2331;48.806;9.140;2024-03-08T11:01:09;25.13;;;15.80;;
4636;SDS011;2331;48.806;9.140;2024-03-08T11:03:50;25.75;;;15.32;;
4636;SDS011;2331;48.806;9.140;2024-03-08T11:06:18;25.38;;;16.10;;
4636;SDS011;2331;48.806;9.140;2024-03-08T11:08:49;27.15;;;15.95;;
4636;SDS011;2331;48.806;9.140;2024-03-08T11:14:02;23.27;;;14.85;;
4636;SDS011;2331;48.806;9.140;2024-03-08T11:16:37;27.05;;;16.00;;
4636;SDS011;2331;48.806;9.140;2024-03-08T11:22:01;26.75;;;16.20;;
4636;SDS011;2331;48.806;9.140;2024-03-08T11:24:38;25.50;;;15.23;;
4636;SDS011;2331;48.806;9.140;2024-03-08T11:27:06;25.83;;;15.50;;
4636;SDS011;2331;48.806;9.140;2024-03-08T11:29:38;26.70;;;16.15;;
4636;SDS011;2331;48.806;9.140;2024-03-08T11:32:08;25.63;;;16.20;;
4636;SDS011;2331;48.806;9.140;2024-03-08T11:34:36;28.60;;;16.33;;
4636;SDS011;2331;48.806;9.140;2024-03-08T11:37:05;25.90;;;16.35;;
4636;SDS011;2331;48.806;9.140;2024-03-08T11:39:34;27.50;;;15.85;;
4636;SDS011;2331;48.806;9.140;2024-03-08T11:42:03;28.23;;;17.00;;
4636;SDS011;2331;48.806;9.140;2024-03-08T11:44:30;26.27;;;15.90;;
4636;SDS011;2331;48.806;9.140;2024-03-08T11:46:56;29.35;;;16.00;;
4636;SDS011;2331;48.806;9.140;2024-03-08T11:49:23;25.70;;;14.90;;
4636;SDS011;2331;48.806;9.140;2024-03-08T11:51:51;26.95;;;16.33;;
4636;SDS011;2331;48.806;9.140;2024-03-08T11:54:20;23.80;;;15.25;;
4636;SDS011;2331;48.806;9.140;2024-03-08T11:56:47;27.17;;;15.15;;
4636;SDS011;2331;48.806;9.140;2024-03-08T11:59:18;26.88;;;16.10;;
4636;SDS011;2331;48.806;9.140;2024-03-08T12:01:56;27.10;;;16.13;;
4636;SDS011;2331;48.806;9.140;2024-03-08T12:04:28;28.23;;;16.58;;
4636;SDS011;2331;48.806;9.140;2024-03-08T12:06:56;25.63;;;15.27;;
4636;SDS011;2331;48.806;9.140;2024-03-08T12:09:27;26.05;;;15.43;;
4636;SDS011;2331;48.806;9.140;2024-03-08T12:11:54;27.85;;;16.35;;
4636;SDS011;2331;48.806;9.140;2024-03-08T12:14:21;27.90;;;16.58;;
4636;SDS011;2331;48.806;9.140;2024-03-08T12:16:50;25.15;;;15.40;;
4636;SDS011;2331;48.806;9.140;2024-03-08T12:19:17;26.75;;;16.83;;
4636;SDS011;2331;48.806;9.140;2024-03-08T12:21:43;30.35;;;17.23;;
4636;SDS011;2331;48.806;9.140;2024-03-08T12:24:14;29.10;;;17.63;;
4636;SDS011;2331;48.806;9.140;2024-03-08T12:26:45;27.33;;;16.45;;
4636;SDS011;2331;48.806;9.140;2024-03-08T12:29:14;31.23;;;17.48;;
4636;SDS011;2331;48.806;9.140;2024-03-08T12:31:42;27.52;;;16.08;;
4636;SDS011;2331;48.806;9.140;2024-03-08T12:34:09;26.58;;;15.95;;
4636;SDS011;2331;48.806;9.140;2024-03-08T12:36:37;29.05;;;16.63;;
4636;SDS011;2331;48.806;9.140;2024-03-08T12:39:04;26.48;;;15.75;;
4636;SDS011;2331;48.806;9.140;2024-03-08T12:41:38;32.25;;;18.58;;
4636;SDS011;2331;48.806;9.140;2024-03-08T12:44:07;31.15;;;17.35;;
4636;SDS011;2331;48.806;9.140;2024-03-08T12:46:36;28.63;;;16.27;;
4636;SDS011;2331;48.806;9.140;2024-03-08T12:49:05;29.88;;;17.65;;
4636;SDS011;2331;48.806;9.140;2024-03-08T12:51:33;30.50;;;17.65;;
4636;SDS011;2331;48.806;9.140;2024-03-08T12:53:59;31.95;;;18.60;;
4636;SDS011;2331;48.806;9.140;2024-03-08T12:56:28;31.45;;;18.55;;
4636;SDS011;2331;48.806;9.140;2024-03-08T12:58:57;33.58;;;18.48;;
4636;SDS011;2331;48.806;9.140;2024-03-08T13:01:26;32.03;;;17.95;;
4636;SDS011;2331;48.806;9.140;2024-03-08T13:03:53;30.70;;;17.33;;
4636;SDS011;2331;48.806;9.140;2024-03-08T13:06:20;29.33;;;16.38;;
4636;SDS011;2331;48.806;9.140;2024-03-08T13:08:49;30.15;;;17.42;;
4636;SDS011;2331;48.806;9.140;2024-03-08T13:11:17;30.40;;;17.45;;
4636;SDS011;2331;48.806;9.140;2024-03-08T13:13:44;29.52;;;17.05;;
4636;SDS011;2331;48.806;9.140;2024-03-08T13:16:11;35.00;;;17.85;;
4636;SDS011;2331;48.806;9.140;2024-03-08T13:18:41;29.80;;;17.80;;
4636;SDS011;2331;48.806;9.140;2024-03-08T13:21:08;30.42;;;16.70;;
4636;SDS011;2331;48.806;9.140;2024-03-08T13:23:35;32.85;;;18.08;;
4636;SDS011;2331;48.806;9.140;2024-03-08T13:26:05;29.60;;;17.85;;
4636;SDS011;2331;48.806;9.140;2024-03-08T13:28:32;31.85;;;18.38;;
4636;SDS011;2331;48.806;9.140;2024-03-08T13:31:02;30.60;;;18.92;;
4636;SDS011;2331;48.806;9.140;2024-03-08T13:33:31;29.70;;;17.75;;
4636;SDS011;2331;48.806;9.140;2024-03-08T13:36:02;25.88;;;15.85;;
4636;SDS011;2331;48.806;9.140;2024-03-08T13:38:29;29.85;;;16.55;;
4636;SDS011;2331;48.806;9.140;2024-03-08T13:40:57;30.02;;;17.30;;
4636;SDS011;2331;48.806;9.140;2024-03-08T13:43:24;29.75;;;17.30;;
4636;SDS011;2331;48.806;9.140;2024-03-08T13:45:53;27.98;;;15.43;;
4636;SDS011;2331;48.806;9.140;2024-03-08T13:48:20;27.27;;;16.08;;
4636;SDS011;2331;48.806;9.140;2024-03-08T13:50:47;27.73;;;16.67;;
4636;SDS011;2331;48.806;9.140;2024-03-08T13:53:16;32.15;;;16.92;;
4636;SDS011;2331;48.806;9.140;2024-03-08T13:55:43;29.77;;;15.95;;
4636;SDS011;2331;48.806;9.140;2024-03-08T13:58:10;32.42;;;17.65;;
4636;SDS011;2331;48.806;9.140;2024-03-08T14:00:39;30.42;;;18.10;;
4636;SDS011;2331;48.806;9.140;2024-03-08T14:03:08;27.33;;;16.25;;
4636;SDS011;2331;48.806;9.140;2024-03-08T14:05:38;34.05;;;18.27;;
4636;SDS011;2331;48.806;9.140;2024-03-08T14:08:05;29.83;;;16.63;;
4636;SDS011;2331;48.806;9.140;2024-03-08T14:10:34;32.10;;;16.60;;
4636;SDS011;2331;48.806;9.140;2024-03-08T14:13:02;34.80;;;19.65;;
4636;SDS011;2331;48.806;9.140;2024-03-08T14:15:29;27.85;;;17.05;;
4636;SDS011;2331;48.806;9.140;2024-03-08T14:17:56;26.13;;;15.45;;
4636;SDS011;2331;48.806;9.140;2024-03-08T14:20:23;29.83;;;16.80;;
4636;SDS011;2331;48.806;9.140;2024-03-08T14:22:51;32.08;;;17.65;;
4636;SDS011;2331;48.806;9.140;2024-03-08T14:25:18;29.77;;;17.20;;
4636;SDS011;2331;48.806;9.140;2024-03-08T14:27:46;26.33;;;16.90;;
4636;SDS011;2331;48.806;9.140;2024-03-08T14:30:14;27.80;;;16.05;;
4636;SDS011;2331;48.806;9.140;2024-03-08T14:32:57;29.23;;;16.35;;
4636;SDS011;2331;48.806;9.140;2024-03-08T14:35:24;27.27;;;16.20;;
4636;SDS011;2331;48.806;9.140;2024-03-08T14:37:51;28.27;;;16.73;;
4636;SDS011;2331;48.806;9.140;2024-03-08T14:40:18;27.40;;;16.13;;
4636;SDS011;2331;48.806;9.140;2024-03-08T14:42:48;28.70;;;16.02;;
4636;SDS011;2331;48.806;9.140;2024-03-08T14:45:15;26.83;;;16.30;;
4636;SDS011;2331;48.806;9.140;2024-03-08T14:47:44;25.60;;;16.42;;
4636;SDS011;2331;48.806;9.140;2024-03-08T14:50:14;30.83;;;16.80;;
4636;SDS011;2331;48.806;9.140;2024-03-08T14:52:42;31.40;;;16.60;;
4636;SDS011;2331;48.806;9.140;2024-03-08T14:55:08;27.67;;;16.52;;
4636;SDS011;2331;48.806;9.140;2024-03-08T14:57:39;28.73;;;15.85;;